Time;durP1;ratioP1;P1;durP2;ratioP2;P2;SDS_P1;SDS_P2;PMS_P1;PMS_P2;Temp;Humidity;BMP_temperature;BMP_pressure;BME280_temperature;BME280_humidity;BME280_pressure;Samples;Min_cycle;Max_cycle;Signal;HPM_P1;HPM_P2
2022/04/04 00:01:16;;;;;;;5.77;5.17;;;;;;;6.72;47.26;94729.78;5045394;28;20578;-74
2022/04/04 00:03:42;;;;;;;5.90;5.50;;;;;;;7.18;46.10;94735.09;5062168;28;20695;-74
2022/04/04 00:06:07;;;;;;;5.23;4.40;;;;;;;6.74;47.07;94727.00;5065245;28;20417;-74
2022/04/04 00:08:35;;;;;;;5.80;5.30;;;;;;;6.89;46.37;94729.72;5063727;28;20217;-75
2022/04/04 00:11:01;;;;;;;6.20;5.70;;;;;;;6.77;47.21;94740.50;5065223;28;20257;-74
2022/04/04 00:13:27;;;;;;;5.33;5.03;;;;;;;6.78;47.01;94736.91;5065556;28;20490;-74
2022/04/04 00:15:53;;;;;;;3.60;3.30;;;;;;;6.42;48.02;94734.72;5065275;28;20401;-74
2022/04/04 00:18:19;;;;;;;5.40;4.90;;;;;;;7.14;46.98;94733.81;5065381;28;20182;-74
2022/04/04 00:20:45;;;;;;;4.73;4.33;;;;;;;6.52;47.67;94723.34;5065524;28;20413;-74
2022/04/04 00:23:14;;;;;;;4.87;4.47;;;;;;;6.42;47.95;94729.53;5065261;28;20178;-74
2022/04/04 00:25:40;;;;;;;3.90;3.50;;;;;;;6.57;47.83;94731.44;5063149;28;20488;-74
2022/04/04 00:28:06;;;;;;;5.10;4.70;;;;;;;6.31;48.75;94731.69;5064490;28;20507;-73
2022/04/04 00:30:32;;;;;;;3.17;2.90;;;;;;;5.74;49.72;94730.72;5071800;28;20416;-74
2022/04/04 00:32:58;;;;;;;4.67;4.27;;;;;;;5.95;49.33;94732.84;5085277;28;20217;-74
2022/04/04 00:35:23;;;;;;;5.70;5.17;;;;;;;6.52;48.74;94731.13;5066266;28;20416;-74
2022/04/04 00:37:48;;;;;;;8.77;6.10;;;;;;;6.83;48.22;94733.81;5065499;28;20175;-74
2022/04/04 00:40:14;;;;;;;6.00;5.50;;;;;;;6.94;47.27;94735.22;5065244;28;20170;-74
2022/04/04 00:42:40;;;;;;;5.23;4.87;;;;;;;6.67;48.14;94742.47;5065080;28;20185;-74
2022/04/04 00:45:06;;;;;;;5.27;4.77;;;;;;;6.04;49.39;94739.66;5063865;28;20208;-74
2022/04/04 00:47:32;;;;;;;4.70;4.23;;;;;;;6.43;48.81;94736.38;5065171;28;20471;-74
2022/04/04 00:49:57;;;;;;;5.80;5.30;;;;;;;6.60;48.72;94736.31;5063896;28;20413;-73
2022/04/04 00:52:23;;;;;;;5.07;4.67;;;;;;;6.69;48.80;94740.50;5064856;28;20183;-74
2022/04/04 00:54:49;;;;;;;6.30;5.80;;;;;;;6.83;48.27;94736.41;5075302;28;20178;-74
2022/04/04 00:57:15;;;;;;;5.23;4.80;;;;;;;6.65;48.47;94734.03;5065160;28;20499;-74
2022/04/04 00:59:41;;;;;;;5.53;5.10;;;;;;;6.19;49.36;94744.22;5043513;28;20210;-74
2022/04/04 01:02:07;;;;;;;5.50;5.10;;;;;;;6.69;48.81;94748.31;5046781;28;20437;-75
2022/04/04 01:04:32;;;;;;;4.83;4.43;;;;;;;6.23;49.29;94740.31;5064958;28;20618;-73
2022/04/04 01:07:02;;;;;;;4.97;4.50;;;;;;;6.29;49.75;94750.03;5064704;28;20174;-74
2022/04/04 01:09:28;;;;;;;5.20;4.70;;;;;;;6.33;48.75;94738.31;5064016;28;20179;-74
2022/04/04 01:12:11;;;;;;;3.60;2.80;;;;;;;6.24;49.13;94732.34;5064763;28;20425;-73
2022/04/04 01:14:39;;;;;;;4.97;4.57;;;;;;;6.10;48.77;94735.59;5064770;28;20413;-74
2022/04/04 01:17:06;;;;;;;5.10;4.70;;;;;;;6.69;47.93;94735.31;5064800;28;20479;-73
2022/04/04 01:19:33;;;;;;;2.73;2.37;;;;;;;5.84;49.47;94727.97;5064734;28;20453;-74
2022/04/04 01:21:59;;;;;;;4.97;4.57;;;;;;;6.39;49.21;94734.25;5064573;28;20459;-74
2022/04/04 01:24:25;;;;;;;5.00;4.60;;;;;;;6.39;49.24;94736.84;5064661;28;20435;-74
2022/04/04 01:26:53;;;;;;;4.00;3.70;;;;;;;5.87;49.27;94725.84;5064332;28;20492;-74
2022/04/04 01:29:22;;;;;;;4.40;4.00;;;;;;;6.36;49.02;94726.81;5063334;28;20190;-73
2022/04/04 01:31:48;;;;;;;4.43;4.13;;;;;;;6.82;47.76;94724.38;5063227;28;20431;-74
2022/04/04 01:34:14;;;;;;;5.63;4.73;;;;;;;6.71;48.14;94712.53;5083676;28;20466;-74
2022/04/04 01:36:40;;;;;;;4.33;4.03;;;;;;;6.64;47.83;94716.81;5088287;28;20427;-74
2022/04/04 01:39:05;;;;;;;3.73;3.53;;;;;;;5.69;49.74;94717.41;5070352;28;20624;-74
2022/04/04 01:41:31;;;;;;;3.57;3.27;;;;;;;6.03;48.91;94719.88;5066724;28;20416;-74
2022/04/04 01:43:56;;;;;;;5.20;4.80;;;;;;;6.00;49.85;94730.59;5068148;28;20190;-74
2022/04/04 01:46:25;;;;;;;5.13;4.70;;;;;;;5.87;50.00;94727.63;5068151;28;20230;-74
2022/04/04 01:48:58;;;;;;;5.47;4.97;;;;;;;5.85;50.23;94737.38;5053981;28;20187;-74
2022/04/04 01:51:24;;;;;;;5.67;5.17;;;;;;;5.61;50.46;94733.00;5048035;28;20402;-74
2022/04/04 01:53:50;;;;;;;5.13;4.73;;;;;;;5.63;49.74;94728.44;5052928;28;20437;-74
2022/04/04 01:56:17;;;;;;;5.00;4.50;;;;;;;5.74;49.89;94735.09;5086410;28;20419;-74
2022/04/04 01:58:43;;;;;;;6.07;5.47;;;;;;;6.03;49.44;94732.88;5087901;28;20400;-74
2022/04/04 02:01:15;;;;;;;5.33;4.43;;;;;;;6.08;48.65;94737.56;5087741;28;20448;-74
2022/04/04 02:03:42;;;;;;;3.90;3.60;;;;;;;5.84;49.45;94733.16;5071208;28;20935;-74
2022/04/04 02:06:08;;;;;;;4.77;4.37;;;;;;;6.20;48.90;94730.22;5066328;28;20436;-74
2022/04/04 02:08:34;;;;;;;4.73;4.40;;;;;;;6.40;48.29;94736.69;5050892;28;20461;-74
2022/04/04 02:11:01;;;;;;;2.83;2.63;;;;;;;6.26;47.72;94729.59;5047687;28;20180;-74
2022/04/04 02:13:27;;;;;;;5.17;4.77;;;;;;;6.14;48.32;94731.69;5047906;28;20437;-74
2022/04/04 02:15:53;;;;;;;5.20;4.80;;;;;;;6.06;48.29;94716.94;5047447;28;20433;-74
2022/04/04 02:18:19;;;;;;;4.10;3.80;;;;;;;5.91;48.83;94720.34;5047813;28;20206;-73
2022/04/04 02:20:46;;;;;;;5.40;5.00;;;;;;;5.88;49.44;94724.09;5047737;28;20560;-74
2022/04/04 02:23:11;;;;;;;3.40;3.20;;;;;;;5.38;49.41;94714.66;5047741;28;20437;-74
2022/04/04 02:25:37;;;;;;;4.30;3.90;;;;;;;5.57;49.16;94719.50;5046123;28;20413;-73
2022/04/04 02:28:03;;;;;;;3.90;3.60;;;;;;;5.85;48.90;94724.41;5060814;28;20226;-73
2022/04/04 02:30:29;;;;;;;5.57;5.03;;;;;;;6.44;47.50;94722.38;5067345;28;20171;-74
2022/04/04 02:32:54;;;;;;;4.27;3.87;;;;;;;5.75;48.84;94719.38;5066129;28;20443;-73
2022/04/04 02:35:20;;;;;;;5.67;5.27;;;;;;;6.25;48.59;94718.34;5067288;28;20411;-74
2022/04/04 02:37:46;;;;;;;5.50;5.07;;;;;;;6.30;48.20;94715.28;5066798;28;20252;-73
2022/04/04 02:40:11;;;;;;;6.10;5.60;;;;;;;6.01;49.06;94714.03;5067151;28;20166;-74
2022/04/04 02:42:37;;;;;;;4.50;4.20;;;;;;;6.08;48.47;94705.56;5066959;28;20182;-74
2022/04/04 02:45:03;;;;;;;6.67;4.90;;;;;;;5.60;49.55;94698.44;5066978;28;20226;-74
2022/04/04 02:47:28;;;;;;;5.87;5.47;;;;;;;5.87;48.95;94706.88;5066374;28;20545;-74
2022/04/04 02:49:54;;;;;;;4.73;4.33;;;;;;;6.17;48.30;94695.00;5066950;28;20166;-74
2022/04/04 02:52:19;;;;;;;5.10;4.60;;;;;;;6.00;48.14;94694.22;5066799;28;20179;-74
2022/04/04 02:54:45;;;;;;;5.37;4.87;;;;;;;5.86;48.60;94703.47;5056334;28;20178;-74
2022/04/04 02:57:10;;;;;;;5.93;5.43;;;;;;;5.71;49.67;94704.25;5049230;28;20192;-74
2022/04/04 02:59:36;;;;;;;7.23;6.50;;;;;;;6.24;48.26;94705.53;5066691;28;20311;-74
2022/04/04 03:02:01;;;;;;;6.40;5.80;;;;;;;5.84;49.13;94709.78;5066790;28;20181;-74
2022/04/04 03:04:27;;;;;;;3.73;3.40;;;;;;;5.67;48.74;94699.41;5062981;28;20610;-74
2022/04/04 03:06:52;;;;;;;8.77;6.00;;;;;;;5.69;49.97;94701.81;5045199;28;20546;-74
2022/04/04 03:09:18;;;;;;;5.97;5.53;;;;;;;5.92;48.98;94711.56;5045276;28;20704;-74
2022/04/04 03:11:43;;;;;;;6.60;5.83;;;;;;;5.76;49.56;94705.41;5046729;28;20278;-74
2022/04/04 03:14:09;;;;;;;7.07;5.37;;;;;;;5.72;49.34;94700.72;5046360;28;20170;-74
2022/04/04 03:16:34;;;;;;;4.77;3.63;;;;;;;5.71;49.62;94701.66;5053078;28;20246;-74
2022/04/04 03:19:00;;;;;;;5.33;4.80;;;;;;;5.39;50.67;94703.31;5066573;28;20178;-73
2022/04/04 03:21:29;;;;;;;9.33;7.43;;;;;;;5.74;50.26;94703.94;5066335;28;20175;-73
2022/04/04 03:23:54;;;;;;;7.20;6.50;;;;;;;5.96;50.14;94713.72;5066586;28;20178;-73
2022/04/04 03:26:20;;;;;;;6.53;6.03;;;;;;;5.72;50.59;94711.91;5054916;28;20422;-74
2022/04/04 03:28:46;;;;;;;8.63;7.23;;;;;;;5.32;51.86;94716.09;5046703;28;20241;-74
2022/04/04 03:31:12;;;;;;;7.43;6.73;;;;;;;5.55;51.32;94716.28;5046949;28;20163;-74
2022/04/04 03:33:38;;;;;;;7.90;7.20;;;;;;;5.58;51.38;94722.94;5045186;28;20426;-73
2022/04/04 03:36:03;;;;;;;9.03;8.23;;;;;;;5.56;51.43;94733.47;5058945;28;20433;-74
2022/04/04 03:38:29;;;;;;;6.10;5.50;;;;;;;5.19;51.50;94737.31;5066277;28;20756;-73
2022/04/04 03:40:55;;;;;;;8.10;7.40;;;;;;;5.50;50.96;94738.50;5065969;28;20175;-74
2022/04/04 03:43:21;;;;;;;9.20;8.30;;;;;;;5.80;50.61;94730.06;5066028;28;20483;-74
2022/04/04 03:45:47;;;;;;;9.20;8.40;;;;;;;5.70;50.60;94728.63;5065012;28;20534;-74
2022/04/04 03:48:12;;;;;;;5.70;5.03;;;;;;;5.27;51.20;94733.91;5066396;28;20518;-73
2022/04/04 03:50:38;;;;;;;10.37;7.87;;;;;;;5.55;50.96;94731.03;5065380;28;20181;-74
2022/04/04 03:53:04;;;;;;;9.70;7.53;;;;;;;5.51;51.54;94751.31;5065083;28;20530;-74
2022/04/04 03:55:39;;;;;;;9.30;8.37;;;;;;;5.81;49.98;94749.06;5064671;28;20509;-74
2022/04/04 03:58:10;;;;;;;8.23;7.43;;;;;;;5.48;50.57;94757.66;5064328;28;20447;-74
2022/04/04 04:00:39;;;;;;;8.77;7.50;;;;;;;5.54;50.68;94751.00;5064964;28;20480;-74
2022/04/04 04:03:05;;;;;;;7.43;6.83;;;;;;;5.32;50.74;94757.59;5065597;28;20424;-74
2022/04/04 04:05:31;;;;;;;8.07;7.20;;;;;;;5.53;49.94;94751.16;5065792;28;20448;-74
2022/04/04 04:07:56;;;;;;;11.93;6.40;;;;;;;5.66;50.25;94760.09;5066093;28;20496;-73
2022/04/04 04:10:22;;;;;;;8.00;7.30;;;;;;;5.80;49.60;94760.41;5065392;28;20197;-74
2022/04/04 04:12:48;;;;;;;7.83;7.33;;;;;;;6.07;48.98;94767.13;5064024;28;20205;-74
2022/04/04 04:15:17;;;;;;;8.27;7.50;;;;;;;5.71;48.85;94771.75;5065602;28;20405;-74
2022/04/04 04:17:43;;;;;;;9.57;8.67;;;;;;;6.08;48.90;94779.13;5065674;28;20537;-73
2022/04/04 04:20:26;;;;;;;7.23;6.40;;;;;;;6.29;47.25;94781.22;5065482;28;20405;-73
2022/04/04 04:22:55;;;;;;;7.83;7.23;;;;;;;6.18;48.10;94779.75;5058727;28;20499;-74
2022/04/04 04:25:23;;;;;;;9.43;7.90;;;;;;;6.41;47.64;94787.72;5048303;28;20426;-74
2022/04/04 04:27:50;;;;;;;8.30;7.50;;;;;;;6.62;47.35;94791.53;5065071;28;20558;-74
2022/04/04 04:30:16;;;;;;;8.37;7.37;;;;;;;6.16;47.70;94791.28;5065181;28;20436;-74
2022/04/04 04:32:44;;;;;;;9.03;7.60;;;;;;;6.32;47.58;94796.47;5065834;28;20514;-73
2022/04/04 04:35:11;;;;;;;10.53;8.30;;;;;;;6.69;46.82;94795.09;5085773;28;20504;-74
2022/04/04 04:37:37;;;;;;;10.50;8.17;;;;;;;6.45;47.70;94802.00;5085416;28;20431;-74
2022/04/04 04:40:03;;;;;;;8.13;7.40;;;;;;;6.26;47.02;94802.34;5085201;28;20408;-73
2022/04/04 04:42:29;;;;;;;9.37;8.47;;;;;;;5.99;47.40;94795.69;5082601;28;20196;-73
2022/04/04 04:44:55;;;;;;;4.30;3.90;;;;;;;5.97;47.45;94802.81;5065292;28;20445;-73
2022/04/04 04:47:20;;;;;;;9.63;6.97;;;;;;;6.23;47.04;94807.84;5063756;28;20507;-74
2022/04/04 04:49:48;;;;;;;9.43;8.57;;;;;;;6.45;46.72;94802.00;5065273;28;20189;-73
2022/04/04 04:52:14;;;;;;;10.00;8.33;;;;;;;6.72;46.27;94807.78;5065110;28;20170;-74
2022/04/04 04:54:39;;;;;;;9.57;8.67;;;;;;;6.92;45.50;94810.00;5054243;28;21286;-74
2022/04/04 04:57:05;;;;;;;8.33;7.53;;;;;;;6.84;46.17;94813.44;5045300;28;20422;-74
2022/04/04 04:59:30;;;;;;;10.47;8.70;;;;;;;6.98;46.06;94811.94;5045153;28;20558;-74
2022/04/04 05:01:56;;;;;;;10.57;8.80;;;;;;;7.12;45.97;94811.25;5044710;28;20270;-74
2022/04/04 05:04:22;;;;;;;9.90;8.90;;;;;;;6.97;46.07;94813.72;5045087;28;20194;-74
2022/04/04 05:06:49;;;;;;;9.20;8.50;;;;;;;6.59;46.46;94817.91;5043409;28;20214;-74
2022/04/04 05:09:16;;;;;;;8.43;7.73;;;;;;;6.47;46.49;94816.59;5043788;28;20307;-74
2022/04/04 05:11:42;;;;;;;6.47;5.87;;;;;;;6.28;47.64;94816.00;5050208;28;20444;-73
2022/04/04 05:14:15;;;;;;;11.10;8.70;;;;;;;6.28;48.48;94816.00;5068427;28;20413;-74
2022/04/04 05:16:41;;;;;;;7.57;6.83;;;;;;;6.25;47.90;94816.31;5068451;28;20171;-73
2022/04/04 05:19:06;;;;;;;10.23;9.33;;;;;;;6.52;48.12;94819.53;5068489;28;20439;-74
2022/04/04 05:21:32;;;;;;;10.23;9.23;;;;;;;7.09;46.46;94819.38;5068818;28;20930;-74
2022/04/04 05:23:57;;;;;;;8.03;7.37;;;;;;;6.55;47.22;94817.41;5068330;28;20252;-74
2022/04/04 05:26:23;;;;;;;8.70;8.00;;;;;;;5.94;49.52;94827.31;5056499;28;20187;-74
2022/04/04 05:28:48;;;;;;;10.83;9.83;;;;;;;6.28;49.61;94826.38;5047549;28;20301;-73
2022/04/04 05:31:13;;;;;;;8.20;7.47;;;;;;;5.84;50.23;94834.41;5048596;28;20163;-74
2022/04/04 05:33:39;;;;;;;9.40;8.40;;;;;;;6.35;49.27;94836.91;5065364;28;20170;-73
2022/04/04 05:36:05;;;;;;;8.23;7.53;;;;;;;5.73;50.85;94842.50;5088241;28;20173;-74
2022/04/04 05:38:30;;;;;;;8.20;6.77;;;;;;;5.68;50.76;94845.59;5087406;28;20181;-73
2022/04/04 05:40:56;;;;;;;10.60;8.43;;;;;;;5.63;51.54;94843.50;5084241;28;20419;-73
2022/04/04 05:43:21;;;;;;;9.83;8.90;;;;;;;5.62;51.04;94847.03;5068638;28;20261;-74
2022/04/04 05:45:50;;;;;;;6.77;6.13;;;;;;;5.72;51.07;94840.91;5066907;28;20177;-73
2022/04/04 05:48:15;;;;;;;9.70;7.47;;;;;;;5.53;52.24;94842.81;5068335;28;20210;-74
2022/04/04 05:50:41;;;;;;;30.37;5.83;;;;;;;5.68;51.84;94846.41;5067837;28;20923;-74
2022/04/04 05:53:06;;;;;;;18.37;9.00;;;;;;;5.82;52.14;94859.75;5050272;28;20199;-74
2022/04/04 05:55:32;;;;;;;8.47;7.67;;;;;;;5.50;52.71;94860.47;5065010;28;20179;-73
2022/04/04 05:57:57;;;;;;;8.37;7.60;;;;;;;5.59;52.55;94868.13;5066722;28;20257;-74
2022/04/04 06:00:23;;;;;;;9.37;8.40;;;;;;;5.82;52.64;94867.53;5066767;28;20173;-73
2022/04/04 06:02:48;;;;;;;9.67;8.70;;;;;;;6.40;51.41;94856.25;5067627;28;20237;-73
2022/04/04 06:05:14;;;;;;;10.10;9.07;;;;;;;6.69;50.53;94860.13;5056550;28;20202;-73
2022/04/04 06:07:40;;;;;;;8.50;7.90;;;;;;;6.30;51.63;94859.97;5046738;28;20203;-74
2022/04/04 06:10:09;;;;;;;9.43;8.37;;;;;;;6.59;50.33;94869.91;5046900;28;20482;-74
2022/04/04 06:12:37;;;;;;;8.80;7.90;;;;;;;6.53;50.42;94860.97;5047529;28;20422;-73
2022/04/04 06:15:03;;;;;;;8.77;7.70;;;;;;;6.80;49.43;94861.56;5047827;28;20452;-73
2022/04/04 06:17:28;;;;;;;9.30;8.40;;;;;;;7.14;49.67;94850.91;5047771;28;20422;-74
2022/04/04 06:19:55;;;;;;;11.73;10.30;;;;;;;7.54;48.65;94849.13;5047403;28;21005;-74
2022/04/04 06:22:22;;;;;;;7.83;7.00;;;;;;;6.67;50.06;94845.66;5046921;28;20179;-73
2022/04/04 06:24:48;;;;;;;8.70;7.80;;;;;;;6.34;51.48;94843.91;5047530;28;20505;-74
2022/04/04 06:27:16;;;;;;;12.57;8.63;;;;;;;7.02;50.49;94844.47;5047391;28;20478;-74
2022/04/04 06:29:43;;;;;;;10.40;9.30;;;;;;;7.12;49.63;94847.66;5079838;28;20496;-73
2022/04/04 06:32:15;;;;;;;9.70;8.80;;;;;;;6.41;50.79;94846.66;5045548;28;20501;-74
2022/04/04 06:34:40;;;;;;;12.63;8.07;;;;;;;7.24;49.94;94845.50;5080068;28;20419;-73
2022/04/04 06:37:07;;;;;;;9.97;8.13;;;;;;;7.32;48.96;94849.88;5087275;28;20942;-74
2022/04/04 06:39:32;;;;;;;15.23;9.53;;;;;;;7.12;49.96;94855.47;5087211;28;20166;-74
2022/04/04 06:41:58;;;;;;;16.03;9.90;;;;;;;7.55;49.02;94855.13;5069586;28;20472;-74
2022/04/04 06:44:23;;;;;;;9.60;8.70;;;;;;;8.02;47.40;94862.88;5067325;28;20166;-74
2022/04/04 06:46:49;;;;;;;10.53;8.50;;;;;;;7.72;47.35;94858.47;5065656;28;20550;-74
2022/04/04 06:49:14;;;;;;;8.93;8.10;;;;;;;8.39;45.89;94861.28;5066856;28;20199;-74
2022/04/04 06:51:40;;;;;;;14.30;8.23;;;;;;;9.04;45.07;94861.72;5067035;28;20178;-74
2022/04/04 06:54:06;;;;;;;10.00;9.10;;;;;;;9.04;44.55;94861.72;5065648;28;20668;-73
2022/04/04 06:56:32;;;;;;;8.30;7.07;;;;;;;8.62;45.58;94867.50;5066814;28;20187;-74
2022/04/04 06:58:58;;;;;;;9.00;8.13;;;;;;;7.97;46.48;94859.97;5065659;28;20401;-74
2022/04/04 07:01:24;;;;;;;8.30;7.50;;;;;;;8.21;46.65;94868.59;5046782;28;20402;-74
2022/04/04 07:03:49;;;;;;;8.87;8.07;;;;;;;9.16;44.78;94855.06;5046634;28;20498;-74
2022/04/04 07:06:16;;;;;;;9.33;8.40;;;;;;;9.69;43.18;94854.91;5065263;28;20258;-74
2022/04/04 07:08:42;;;;;;;8.40;7.60;;;;;;;8.46;46.10;94863.22;5066412;28;20197;-74
2022/04/04 07:11:10;;;;;;;9.37;8.13;;;;;;;8.48;45.24;94861.25;5048350;28;20453;-74
2022/04/04 07:13:36;;;;;;;9.23;8.33;;;;;;;8.02;46.27;94864.66;5046775;28;20426;-73
2022/04/04 07:16:02;;;;;;;7.93;7.23;;;;;;;8.39;45.11;94866.50;5046688;28;20410;-74
2022/04/04 07:18:27;;;;;;;8.60;7.80;;;;;;;9.41;43.18;94867.00;5046567;28;20442;-74
2022/04/04 07:20:52;;;;;;;12.53;9.60;;;;;;;8.71;45.05;94867.25;5060136;28;20170;-74
2022/04/04 07:23:18;;;;;;;27.67;11.60;;;;;;;8.78;45.33;94872.56;5066421;28;20257;-74
2022/04/04 07:25:43;;;;;;;8.40;7.70;;;;;;;8.79;44.81;94868.97;5066310;28;20170;-74
2022/04/04 07:28:09;;;;;;;9.67;8.67;;;;;;;9.26;43.75;94867.84;5065922;28;20261;-74
2022/04/04 07:30:34;;;;;;;10.87;7.50;;;;;;;9.15;43.45;94871.72;5065430;28;20253;-73
2022/04/04 07:33:03;;;;;;;9.17;8.00;;;;;;;9.58;42.65;94865.84;5066799;28;20228;-74
2022/04/04 07:35:29;;;;;;;7.83;7.10;;;;;;;8.46;44.72;94873.66;5085962;28;20162;-74
2022/04/04 07:37:54;;;;;;;16.40;9.50;;;;;;;8.54;45.92;94876.22;5086310;28;20422;-74
2022/04/04 07:40:21;;;;;;;8.07;7.10;;;;;;;9.01;44.28;94869.91;5077568;28;20178;-73
2022/04/04 07:42:47;;;;;;;10.10;7.50;;;;;;;9.09;42.93;94869.03;5066115;28;20244;-74
2022/04/04 07:45:14;;;;;;;16.90;9.47;;;;;;;9.97;42.33;94873.31;5065924;28;20412;-75
2022/04/04 07:47:40;;;;;;;9.90;7.93;;;;;;;10.16;41.68;94871.09;5066075;28;20472;-73
2022/04/04 07:50:08;;;;;;;10.10;9.00;;;;;;;10.06;41.59;94878.44;5060303;28;20430;-73
2022/04/04 07:52:34;;;;;;;10.83;9.33;;;;;;;10.28;41.15;94874.84;5046026;28;20452;-74
2022/04/04 07:55:04;;;;;;;9.07;7.80;;;;;;;10.62;39.76;94883.03;5056654;28;20409;-74
2022/04/04 07:57:29;;;;;;;10.53;8.53;;;;;;;11.22;40.12;94873.78;5065581;28;20178;-74
2022/04/04 07:59:54;;;;;;;10.77;7.70;;;;;;;11.45;38.65;94870.91;5065524;28;20424;-73
2022/04/04 08:02:23;;;;;;;9.60;8.70;;;;;;;11.50;39.13;94875.56;5065670;28;20171;-74
2022/04/04 08:04:49;;;;;;;24.30;9.87;;;;;;;10.66;40.56;94882.47;5058850;28;20627;-74
2022/04/04 08:07:18;;;;;;;11.97;8.50;;;;;;;10.79;40.39;94875.72;5045447;28;20457;-74
2022/04/04 08:09:43;;;;;;;9.73;8.77;;;;;;;10.77;40.03;94875.09;5045817;28;20409;-74
2022/04/04 08:12:09;;;;;;;11.40;9.00;;;;;;;11.26;39.05;94876.84;5045606;28;20426;-74
2022/04/04 08:14:36;;;;;;;9.47;8.67;;;;;;;11.41;38.46;94879.34;5044400;28;20171;-74
2022/04/04 08:17:02;;;;;;;9.47;8.40;;;;;;;12.00;37.50;94875.41;5045738;28;20421;-74
2022/04/04 08:19:28;;;;;;;10.83;9.73;;;;;;;11.84;37.43;94874.72;5044368;28;20433;-74
2022/04/04 08:21:53;;;;;;;12.40;8.03;;;;;;;11.72;38.37;94863.16;5045554;28;20221;-74
2022/04/04 08:24:20;;;;;;;10.77;9.50;;;;;;;12.18;37.76;94864.31;5045643;28;20406;-74
2022/04/04 08:26:45;;;;;;;10.77;9.77;;;;;;;12.77;36.88;94868.06;5059882;28;20221;-74
2022/04/04 08:29:11;;;;;;;9.00;8.20;;;;;;;12.82;36.90;94858.53;5065436;28;20963;-74
2022/04/04 08:31:38;;;;;;;9.40;8.33;;;;;;;10.88;39.64;94851.00;5065133;28;20229;-74
2022/04/04 08:34:03;;;;;;;8.97;8.17;;;;;;;11.04;39.98;94852.53;5064971;28;20248;-74
2022/04/04 08:36:29;;;;;;;9.60;8.70;;;;;;;10.83;40.20;94845.53;5058149;28;20430;-74
2022/04/04 08:38:54;;;;;;;10.10;9.20;;;;;;;11.29;39.82;94850.28;5045381;28;20186;-74
2022/04/04 08:41:21;;;;;;;9.93;8.93;;;;;;;11.13;39.75;94854.00;5045417;28;20167;-74
2022/04/04 08:43:49;;;;;;;10.53;7.60;;;;;;;11.33;40.01;94838.41;5046454;28;20190;-74
2022/04/04 08:46:16;;;;;;;11.17;9.70;;;;;;;12.59;37.65;94840.56;5049368;28;20455;-74
2022/04/04 08:48:42;;;;;;;9.90;8.90;;;;;;;13.11;36.33;94837.28;5049075;28;20464;-74
2022/04/04 08:51:09;;;;;;;9.57;8.67;;;;;;;11.47;38.80;94836.63;5047730;28;20463;-74
2022/04/04 08:53:36;;;;;;;8.87;8.07;;;;;;;11.93;38.33;94828.16;5051017;28;20426;-74
2022/04/04 08:56:23;;;;;;;10.20;6.93;;;;;;;12.77;37.03;94826.84;5081151;28;20417;-74
2022/04/04 08:58:50;;;;;;;10.80;9.80;;;;;;;13.36;36.25;94824.34;5056229;28;20460;-74
2022/04/04 09:01:16;;;;;;;10.60;9.60;;;;;;;13.45;35.28;94818.66;5048983;28;20416;-74
2022/04/04 09:03:42;;;;;;;11.53;10.37;;;;;;;13.48;35.79;94810.31;5055829;28;20507;-74
2022/04/04 09:06:07;;;;;;;9.73;8.80;;;;;;;13.51;35.91;94810.91;5067815;28;20224;-74
2022/04/04 09:08:48;;;;;;;10.03;9.07;;;;;;;13.11;35.58;94808.38;5068896;28;20222;-73
2022/04/04 09:11:14;;;;;;;11.97;9.47;;;;;;;13.21;35.58;94812.22;5067296;28;20231;-74
2022/04/04 09:13:40;;;;;;;10.83;9.70;;;;;;;14.11;34.09;94805.38;5067663;28;20496;-74
2022/04/04 09:16:08;;;;;;;10.50;9.37;;;;;;;14.68;33.81;94800.13;5069167;28;20405;-74
2022/04/04 09:18:37;;;;;;;11.20;9.97;;;;;;;14.46;34.13;94792.59;5049762;28;20434;-75
2022/04/04 09:21:18;;;;;;;11.60;9.70;;;;;;;13.28;35.40;94799.06;5047326;28;20421;-74
2022/04/04 09:23:47;;;;;;;10.67;9.40;;;;;;;13.95;34.18;94794.34;5048668;28;20433;-74
2022/04/04 09:26:41;;;;;;;9.50;7.47;;;;;;;13.71;34.37;94785.34;5058624;28;21025;-75
2022/04/04 09:29:24;;;;;;;8.13;7.43;;;;;;;14.01;34.04;94776.91;5048401;28;20450;-74
2022/04/04 09:31:59;;;;;;;8.43;7.63;;;;;;;14.28;34.84;94771.44;5048424;28;20429;-74
2022/04/04 09:34:25;;;;;;;10.60;9.60;;;;;;;13.46;35.87;94770.28;5092507;28;20760;-74
2022/04/04 09:36:51;;;;;;;10.67;9.67;;;;;;;14.36;33.91;94771.19;5068406;28;20423;-74
2022/04/04 09:39:17;;;;;;;10.40;9.27;;;;;;;14.00;33.95;94768.22;5068450;28;20416;-74
2022/04/04 09:41:43;;;;;;;10.67;9.80;;;;;;;13.35;35.65;94765.69;5067022;28;20171;-74
2022/04/04 09:44:11;;;;;;;9.90;8.90;;;;;;;12.61;37.02;94769.47;5068007;28;20441;-73
2022/04/04 09:46:45;;;;;;;9.57;8.70;;;;;;;13.41;35.08;94759.63;5054342;28;20490;-74
2022/04/04 09:49:20;;;;;;;10.43;9.60;;;;;;;12.95;35.52;94765.78;5048473;28;20458;-74
2022/04/04 09:51:48;;;;;;;9.87;8.97;;;;;;;14.14;34.18;94752.34;5048321;28;20421;-74
2022/04/04 09:54:23;;;;;;;11.23;10.13;;;;;;;13.82;35.26;94755.75;5066432;28;20413;-74
2022/04/04 09:56:50;;;;;;;10.10;8.40;;;;;;;14.16;34.65;94750.28;5067163;28;20808;-74
2022/04/04 09:59:17;;;;;;;9.63;8.67;;;;;;;13.67;35.41;94742.09;5068162;28;20452;-74
2022/04/04 10:01:44;;;;;;;7.83;7.13;;;;;;;13.64;35.44;94742.53;5067773;28;20440;-75
2022/04/04 10:04:12;;;;;;;10.17;9.00;;;;;;;13.80;35.40;94739.38;5056821;28;20457;-74
2022/04/04 10:06:42;;;;;;;8.43;7.63;;;;;;;14.55;33.30;94727.28;5046405;28;20469;-74
2022/04/04 10:09:08;;;;;;;7.23;6.63;;;;;;;13.46;35.12;94733.50;5047376;28;20466;-73
2022/04/04 10:11:36;;;;;;;9.07;8.23;;;;;;;13.55;35.43;94728.00;5047590;28;20940;-74
2022/04/04 10:14:02;;;;;;;9.27;8.43;;;;;;;14.41;34.54;94718.69;5047577;28;20414;-74
2022/04/04 10:16:30;;;;;;;10.70;8.33;;;;;;;14.15;34.17;94711.81;5046295;28;20418;-74
2022/04/04 10:18:57;;;;;;;10.23;8.30;;;;;;;13.89;34.80;94708.38;5046119;28;20413;-75
2022/04/04 10:21:25;;;;;;;7.50;6.80;;;;;;;14.04;34.49;94705.44;5047159;28;20406;-73
2022/04/04 10:23:53;;;;;;;11.87;6.70;;;;;;;14.36;34.55;94700.09;5047103;28;20424;-74
2022/04/04 10:26:21;;;;;;;15.00;7.63;;;;;;;14.20;34.09;94697.00;5049297;28;20434;-74
2022/04/04 10:28:48;;;;;;;7.33;6.63;;;;;;;14.02;33.64;94702.22;5067106;28;20975;-74
2022/04/04 10:31:15;;;;;;;8.03;7.23;;;;;;;14.19;33.85;94695.41;5067236;28;20453;-75
2022/04/04 10:33:41;;;;;;;8.47;7.60;;;;;;;14.02;34.35;94697.75;5067262;28;20413;-74
2022/04/04 10:36:08;;;;;;;11.87;9.53;;;;;;;13.32;35.39;94692.53;5067168;28;20468;-73
2022/04/04 10:38:55;;;;;;;8.80;7.60;;;;;;;13.66;35.29;94688.69;5067231;28;20421;-73
2022/04/04 10:41:26;;;;;;;8.30;7.43;;;;;;;14.21;33.73;94690.72;5066635;28;20775;-74
2022/04/04 10:43:54;;;;;;;7.87;7.10;;;;;;;14.09;34.16;94681.91;5058713;28;20995;-74
2022/04/04 10:46:22;;;;;;;8.40;7.40;;;;;;;14.01;34.01;94682.19;5046997;28;20406;-74
2022/04/04 10:48:50;;;;;;;7.37;6.57;;;;;;;13.70;34.48;94672.47;5045813;28;20568;-74
2022/04/04 10:51:25;;;;;;;8.20;7.50;;;;;;;13.57;35.60;94676.81;5047129;28;20409;-74
2022/04/04 10:53:53;;;;;;;9.13;7.77;;;;;;;13.88;34.21;94672.56;5049599;28;20390;-74
2022/04/04 10:56:24;;;;;;;7.97;7.27;;;;;;;13.92;35.23;94670.31;5066861;28;20414;-74
2022/04/04 10:58:52;;;;;;;9.20;7.10;;;;;;;13.76;34.34;94676.91;5066997;28;20768;-74
2022/04/04 11:01:20;;;;;;;7.97;6.40;;;;;;;14.00;34.58;94672.66;5067074;28;20401;-74
2022/04/04 11:03:52;;;;;;;8.67;7.80;;;;;;;14.35;35.56;94664.28;5066861;28;20441;-74
2022/04/04 11:09:11;;;;;;;8.00;7.03;;;;;;;15.79;32.43;94663.81;5066103;28;20448;-74
2022/04/04 11:11:55;;;;;;;7.57;6.47;;;;;;;15.14;33.45;94656.53;5066236;28;20440;-73
2022/04/04 11:14:37;;;;;;;8.03;7.23;;;;;;;14.70;34.23;94661.09;5066766;28;20385;-73
2022/04/04 11:17:08;;;;;;;7.33;6.60;;;;;;;14.97;33.17;94665.06;5063397;28;20430;-73
2022/04/04 11:20:00;;;;;;;11.47;7.83;;;;;;;15.46;32.59;94664.25;5046331;28;20410;-74
2022/04/04 11:22:36;;;;;;;10.27;6.63;;;;;;;15.27;32.95;94656.41;5046661;28;20422;-74
2022/04/04 11:25:05;;;;;;;8.63;6.20;;;;;;;15.80;31.84;94644.28;5046440;28;20394;-74
2022/04/04 11:27:35;;;;;;;11.97;5.87;;;;;;;15.08;32.35;94642.44;5045531;28;20482;-74
2022/04/04 11:30:06;;;;;;;9.50;7.03;;;;;;;14.96;32.78;94642.38;5046278;28;20406;-74
2022/04/04 11:32:40;;;;;;;7.50;6.77;;;;;;;15.75;32.23;94641.56;5046184;28;20422;-74
2022/04/04 11:35:27;;;;;;;8.97;6.57;;;;;;;15.87;32.13;94644.19;5063694;28;20405;-75
2022/04/04 11:38:05;;;;;;;8.50;5.80;;;;;;;16.30;31.45;94637.81;5066519;28;20421;-74
2022/04/04 11:40:38;;;;;;;6.90;6.23;;;;;;;15.42;32.71;94627.78;5064765;28;20427;-74